首页
METAR-TAF:

METAR-TAF

机场 :

凱恩斯國際機場

凱恩斯, 澳大利亚

纬度: 16-53S, 经度: 145-45E, 海拔: 3米

当前天气观测

该预报发布于44分钟前的09:00 UTC
风速1节,风向南转西南
温度 20°C
湿度 73%
气压 1018 hPa
能见度10公里或以上

METAR: YBCS 200900Z AUTO 21001KT 9999 // NCD 20/15 Q1018 RF00.0/000.0

时间: 19:44 (09:44 UTC)

预报

该预报发布于1小时和38分钟前的08:06 UTC
预报有效从20日的 09点(UTC)到 21日的 06点(UTC)
风速5节,风向
能见度10公里或以上
少量云层高于3500英尺
从 21日的 0000点(UTC)
风速10节,风向东转东南
能见度10公里或以上
1500米以下无云,无积雨云

TAF: YBCS 200806Z 2009/2106 18005KT 9999 FEW035 FM210000 12010KT CAVOK

超过4000个机场的气象观测和天气预报(METAR&TAF报告)。

可查询的气象台以黄色和红色小点在地图上表示。

将鼠标移到小点上方,可查看气象台名称。

然后点击查看天气观测和预报。

如需切换地图:点击带黑十字的绿色按钮放大地图;点击带横线的绿色按钮缩小地图;或者点击绿色箭头查看邻近地区的地图。


METAR-TAF: